sensor_id;sensor_type;location;lat;lon;timestamp;temperature;humidity
25923;DHT22;13725;51.170;4.442;2022-10-15T00:00:50;14.60;99.90
25923;DHT22;13725;51.170;4.442;2022-10-15T00:03:16;14.60;99.90
25923;DHT22;13725;51.170;4.442;2022-10-15T00:05:42;14.60;99.90
25923;DHT22;13725;51.170;4.442;2022-10-15T00:08:09;14.70;99.90
25923;DHT22;13725;51.170;4.442;2022-10-15T00:10:36;14.70;99.90
25923;DHT22;13725;51.170;4.442;2022-10-15T00:13:03;14.70;99.90
25923;DHT22;13725;51.170;4.442;2022-10-15T00:15:29;14.70;99.90
25923;DHT22;13725;51.170;4.442;2022-10-15T00:17:55;14.80;99.90
25923;DHT22;13725;51.170;4.442;2022-10-15T00:20:21;14.70;99.90
25923;DHT22;13725;51.170;4.442;2022-10-15T00:22:47;14.70;99.90
25923;DHT22;13725;51.170;4.442;2022-10-15T00:25:13;14.70;99.90
25923;DHT22;13725;51.170;4.442;2022-10-15T00:27:38;14.80;99.90
25923;DHT22;13725;51.170;4.442;2022-10-15T00:30:05;14.70;99.90
25923;DHT22;13725;51.170;4.442;2022-10-15T00:32:31;14.80;99.90
25923;DHT22;13725;51.170;4.442;2022-10-15T00:34:57;14.80;99.90
25923;DHT22;13725;51.170;4.442;2022-10-15T00:37:23;14.90;99.90
25923;DHT22;13725;51.170;4.442;2022-10-15T00:39:49;14.90;99.90
25923;DHT22;13725;51.170;4.442;2022-10-15T00:42:16;14.90;99.90
25923;DHT22;13725;51.170;4.442;2022-10-15T00:44:53;14.90;99.90
25923;DHT22;13725;51.170;4.442;2022-10-15T00:47:26;14.90;99.90
25923;DHT22;13725;51.170;4.442;2022-10-15T00:52:22;14.90;99.90
25923;DHT22;13725;51.170;4.442;2022-10-15T00:54:57;14.90;99.90
25923;DHT22;13725;51.170;4.442;2022-10-15T00:57:24;14.90;99.90
25923;DHT22;13725;51.170;4.442;2022-10-15T00:59:55;15.00;99.90
25923;DHT22;13725;51.170;4.442;2022-10-15T01:02:22;14.90;99.90
25923;DHT22;13725;51.170;4.442;2022-10-15T01:04:48;15.00;99.90
25923;DHT22;13725;51.170;4.442;2022-10-15T01:07:15;14.90;99.90
25923;DHT22;13725;51.170;4.442;2022-10-15T01:09:41;15.00;99.90
25923;DHT22;13725;51.170;4.442;2022-10-15T01:12:22;15.00;99.90
25923;DHT22;13725;51.170;4.442;2022-10-15T01:17:56;15.00;99.90
25923;DHT22;13725;51.170;4.442;2022-10-15T01:20:51;15.00;99.90
25923;DHT22;13725;51.170;4.442;2022-10-15T01:23:25;15.00;99.90
25923;DHT22;13725;51.170;4.442;2022-10-15T01:29:21;14.90;99.90
25923;DHT22;13725;51.170;4.442;2022-10-15T01:34:37;14.80;99.90
25923;DHT22;13725;51.170;4.442;2022-10-15T01:37:11;14.90;99.90
25923;DHT22;13725;51.170;4.442;2022-10-15T01:39:43;14.60;99.90
25923;DHT22;13725;51.170;4.442;2022-10-15T01:42:21;14.60;99.90
25923;DHT22;13725;51.170;4.442;2022-10-15T01:44:56;14.50;99.90
25923;DHT22;13725;51.170;4.442;2022-10-15T01:49:59;14.50;99.90
25923;DHT22;13725;51.170;4.442;2022-10-15T01:52:31;14.50;99.90
25923;DHT22;13725;51.170;4.442;2022-10-15T01:54:59;14.50;99.90
25923;DHT22;13725;51.170;4.442;2022-10-15T01:57:26;14.50;99.90
25923;DHT22;13725;51.170;4.442;2022-10-15T01:59:55;14.40;99.90
25923;DHT22;13725;51.170;4.442;2022-10-15T02:02:22;14.50;99.90
25923;DHT22;13725;51.170;4.442;2022-10-15T02:04:48;14.50;99.90
25923;DHT22;13725;51.170;4.442;2022-10-15T02:10:07;14.50;99.90
25923;DHT22;13725;51.170;4.442;2022-10-15T02:13:03;14.50;99.90
25923;DHT22;13725;51.170;4.442;2022-10-15T02:21:27;14.40;99.90
25923;DHT22;13725;51.170;4.442;2022-10-15T02:24:08;14.30;99.90
25923;DHT22;13725;51.170;4.442;2022-10-15T02:26:37;14.20;99.90
25923;DHT22;13725;51.170;4.442;2022-10-15T02:29:07;14.10;99.90
25923;DHT22;13725;51.170;4.442;2022-10-15T02:31:34;14.00;99.90
25923;DHT22;13725;51.170;4.442;2022-10-15T02:34:07;14.00;99.90
25923;DHT22;13725;51.170;4.442;2022-10-15T02:36:38;14.20;99.90
25923;DHT22;13725;51.170;4.442;2022-10-15T02:39:06;14.10;99.90
25923;DHT22;13725;51.170;4.442;2022-10-15T02:41:35;14.20;99.90
25923;DHT22;13725;51.170;4.442;2022-10-15T02:44:02;14.20;99.90
25923;DHT22;13725;51.170;4.442;2022-10-15T02:46:28;14.20;99.90
25923;DHT22;13725;51.170;4.442;2022-10-15T02:48:54;14.30;99.90
25923;DHT22;13725;51.170;4.442;2022-10-15T02:51:20;14.30;99.90
25923;DHT22;13725;51.170;4.442;2022-10-15T02:53:45;14.30;99.90
25923;DHT22;13725;51.170;4.442;2022-10-15T02:56:11;14.30;99.90
25923;DHT22;13725;51.170;4.442;2022-10-15T02:58:37;14.30;99.90
25923;DHT22;13725;51.170;4.442;2022-10-15T03:01:03;14.20;99.90
25923;DHT22;13725;51.170;4.442;2022-10-15T03:03:29;14.20;99.90
25923;DHT22;13725;51.170;4.442;2022-10-15T03:05:55;14.20;99.90
25923;DHT22;13725;51.170;4.442;2022-10-15T03:08:21;14.10;99.90
25923;DHT22;13725;51.170;4.442;2022-10-15T03:10:47;14.10;99.90
25923;DHT22;13725;51.170;4.442;2022-10-15T03:13:13;14.10;99.90
25923;DHT22;13725;51.170;4.442;2022-10-15T03:15:46;14.10;99.90
25923;DHT22;13725;51.170;4.442;2022-10-15T03:18:13;14.20;99.90
25923;DHT22;13725;51.170;4.442;2022-10-15T03:20:39;14.20;99.90
25923;DHT22;13725;51.170;4.442;2022-10-15T03:23:05;14.20;99.90
25923;DHT22;13725;51.170;4.442;2022-10-15T03:25:31;14.30;99.90
25923;DHT22;13725;51.170;4.442;2022-10-15T03:28:00;14.20;99.90
25923;DHT22;13725;51.170;4.442;2022-10-15T03:30:34;14.20;99.90
25923;DHT22;13725;51.170;4.442;2022-10-15T03:33:00;14.20;99.90
25923;DHT22;13725;51.170;4.442;2022-10-15T03:35:27;14.20;99.90
25923;DHT22;13725;51.170;4.442;2022-10-15T03:37:53;14.20;99.90
25923;DHT22;13725;51.170;4.442;2022-10-15T03:40:19;14.20;99.90
25923;DHT22;13725;51.170;4.442;2022-10-15T03:42:52;14.20;99.90
25923;DHT22;13725;51.170;4.442;2022-10-15T03:45:23;14.10;99.90
25923;DHT22;13725;51.170;4.442;2022-10-15T03:48:01;14.00;99.90
25923;DHT22;13725;51.170;4.442;2022-10-15T03:50:31;14.00;99.90
25923;DHT22;13725;51.170;4.442;2022-10-15T03:53:03;13.90;99.90
25923;DHT22;13725;51.170;4.442;2022-10-15T03:55:30;13.80;99.90
25923;DHT22;13725;51.170;4.442;2022-10-15T03:57:56;13.80;99.90
25923;DHT22;13725;51.170;4.442;2022-10-15T04:00:22;13.70;99.90
25923;DHT22;13725;51.170;4.442;2022-10-15T04:02:51;13.70;99.90
25923;DHT22;13725;51.170;4.442;2022-10-15T04:05:23;13.70;99.90
25923;DHT22;13725;51.170;4.442;2022-10-15T04:07:53;13.60;99.90
25923;DHT22;13725;51.170;4.442;2022-10-15T04:10:21;13.50;99.90
25923;DHT22;13725;51.170;4.442;2022-10-15T04:12:46;13.50;99.90
25923;DHT22;13725;51.170;4.442;2022-10-15T04:15:16;13.50;99.90
25923;DHT22;13725;51.170;4.442;2022-10-15T04:17:49;13.40;99.90
25923;DHT22;13725;51.170;4.442;2022-10-15T04:20:20;13.40;99.90
25923;DHT22;13725;51.170;4.442;2022-10-15T04:22:46;13.50;99.90
25923;DHT22;13725;51.170;4.442;2022-10-15T04:25:13;13.40;99.90
25923;DHT22;13725;51.170;4.442;2022-10-15T04:27:39;13.40;99.90
25923;DHT22;13725;51.170;4.442;2022-10-15T04:30:11;13.40;99.90
25923;DHT22;13725;51.170;4.442;2022-10-15T04:32:41;13.40;99.90
25923;DHT22;13725;51.170;4.442;2022-10-15T04:35:07;13.40;99.90
25923;DHT22;13725;51.170;4.442;2022-10-15T04:37:47;13.40;99.90
25923;DHT22;13725;51.170;4.442;2022-10-15T04:40:14;13.30;99.90
25923;DHT22;13725;51.170;4.442;2022-10-15T04:42:40;13.30;99.90
25923;DHT22;13725;51.170;4.442;2022-10-15T04:45:07;13.30;99.90
25923;DHT22;13725;51.170;4.442;2022-10-15T04:47:34;13.30;99.90
25923;DHT22;13725;51.170;4.442;2022-10-15T04:50:06;13.50;99.90
25923;DHT22;13725;51.170;4.442;2022-10-15T04:52:54;13.40;99.90
25923;DHT22;13725;51.170;4.442;2022-10-15T04:55:21;13.60;99.90
25923;DHT22;13725;51.170;4.442;2022-10-15T04:57:47;13.60;99.90
25923;DHT22;13725;51.170;4.442;2022-10-15T05:00:16;13.70;99.90
25923;DHT22;13725;51.170;4.442;2022-10-15T05:03:01;13.80;99.90
25923;DHT22;13725;51.170;4.442;2022-10-15T05:06:04;13.90;99.90
25923;DHT22;13725;51.170;4.442;2022-10-15T05:08:31;13.80;99.90
25923;DHT22;13725;51.170;4.442;2022-10-15T05:11:25;13.90;99.90
25923;DHT22;13725;51.170;4.442;2022-10-15T05:13:54;14.00;99.90
25923;DHT22;13725;51.170;4.442;2022-10-15T05:16:26;14.00;99.90
25923;DHT22;13725;51.170;4.442;2022-10-15T05:19:11;14.00;99.90
25923;DHT22;13725;51.170;4.442;2022-10-15T05:21:39;14.00;99.90
25923;DHT22;13725;51.170;4.442;2022-10-15T05:24:13;14.00;99.90
25923;DHT22;13725;51.170;4.442;2022-10-15T05:27:08;14.00;99.90
25923;DHT22;13725;51.170;4.442;2022-10-15T05:29:34;14.10;99.90
25923;DHT22;13725;51.170;4.442;2022-10-15T05:32:00;14.10;99.90
25923;DHT22;13725;51.170;4.442;2022-10-15T05:34:27;14.10;99.90
25923;DHT22;13725;51.170;4.442;2022-10-15T05:37:06;14.10;99.90
25923;DHT22;13725;51.170;4.442;2022-10-15T05:39:31;14.00;99.90
25923;DHT22;13725;51.170;4.442;2022-10-15T05:41:58;14.10;99.90
25923;DHT22;13725;51.170;4.442;2022-10-15T05:44:34;14.10;99.90
25923;DHT22;13725;51.170;4.442;2022-10-15T05:47:00;14.10;99.90
25923;DHT22;13725;51.170;4.442;2022-10-15T05:49:26;14.10;99.90
25923;DHT22;13725;51.170;4.442;2022-10-15T05:52:02;14.00;99.90
25923;DHT22;13725;51.170;4.442;2022-10-15T05:54:51;14.10;99.90
25923;DHT22;13725;51.170;4.442;2022-10-15T05:57:17;14.10;99.90
25923;DHT22;13725;51.170;4.442;2022-10-15T05:59:43;14.10;99.90
25923;DHT22;13725;51.170;4.442;2022-10-15T06:02:09;14.00;99.90
25923;DHT22;13725;51.170;4.442;2022-10-15T06:04:41;14.00;99.90
25923;DHT22;13725;51.170;4.442;2022-10-15T06:07:06;14.00;99.90
25923;DHT22;13725;51.170;4.442;2022-10-15T06:09:32;14.00;99.90
25923;DHT22;13725;51.170;4.442;2022-10-15T06:11:58;14.00;99.90
25923;DHT22;13725;51.170;4.442;2022-10-15T06:14:24;14.00;99.90
25923;DHT22;13725;51.170;4.442;2022-10-15T06:16:50;14.00;99.90
25923;DHT22;13725;51.170;4.442;2022-10-15T06:19:18;13.90;99.90
25923;DHT22;13725;51.170;4.442;2022-10-15T06:21:43;13.90;99.90
25923;DHT22;13725;51.170;4.442;2022-10-15T06:24:09;14.00;99.90
25923;DHT22;13725;51.170;4.442;2022-10-15T06:26:35;14.00;99.90
25923;DHT22;13725;51.170;4.442;2022-10-15T06:29:01;14.00;99.90
25923;DHT22;13725;51.170;4.442;2022-10-15T06:31:26;14.10;99.90
25923;DHT22;13725;51.170;4.442;2022-10-15T06:33:52;14.10;99.90
25923;DHT22;13725;51.170;4.442;2022-10-15T06:36:18;14.10;99.90
25923;DHT22;13725;51.170;4.442;2022-10-15T06:38:46;14.10;99.90
25923;DHT22;13725;51.170;4.442;2022-10-15T06:41:11;14.10;99.90
25923;DHT22;13725;51.170;4.442;2022-10-15T06:43:38;14.10;99.90
25923;DHT22;13725;51.170;4.442;2022-10-15T06:46:04;14.10;99.90
25923;DHT22;13725;51.170;4.442;2022-10-15T06:48:31;14.00;99.90
25923;DHT22;13725;51.170;4.442;2022-10-15T06:51:01;14.10;99.90
25923;DHT22;13725;51.170;4.442;2022-10-15T06:53:28;14.20;99.90
25923;DHT22;13725;51.170;4.442;2022-10-15T06:55:58;14.40;99.90
25923;DHT22;13725;51.170;4.442;2022-10-15T06:58:25;14.30;99.90
25923;DHT22;13725;51.170;4.442;2022-10-15T07:00:50;14.40;99.90
25923;DHT22;13725;51.170;4.442;2022-10-15T07:03:16;14.60;99.90
25923;DHT22;13725;51.170;4.442;2022-10-15T07:05:42;14.60;99.90
25923;DHT22;13725;51.170;4.442;2022-10-15T07:08:07;14.60;99.90
25923;DHT22;13725;51.170;4.442;2022-10-15T07:10:33;14.70;99.90
25923;DHT22;13725;51.170;4.442;2022-10-15T07:13:00;14.80;99.90
25923;DHT22;13725;51.170;4.442;2022-10-15T07:15:26;14.80;99.90
25923;DHT22;13725;51.170;4.442;2022-10-15T07:17:54;14.80;99.90
25923;DHT22;13725;51.170;4.442;2022-10-15T07:20:30;14.80;99.90
25923;DHT22;13725;51.170;4.442;2022-10-15T07:22:59;14.90;99.90
25923;DHT22;13725;51.170;4.442;2022-10-15T07:25:29;15.00;99.90
25923;DHT22;13725;51.170;4.442;2022-10-15T07:27:55;14.90;99.90
25923;DHT22;13725;51.170;4.442;2022-10-15T07:30:22;14.90;99.90
25923;DHT22;13725;51.170;4.442;2022-10-15T07:32:50;14.90;99.90
25923;DHT22;13725;51.170;4.442;2022-10-15T07:35:16;15.10;99.90
25923;DHT22;13725;51.170;4.442;2022-10-15T07:37:41;14.90;99.90
25923;DHT22;13725;51.170;4.442;2022-10-15T07:40:07;14.90;99.90
25923;DHT22;13725;51.170;4.442;2022-10-15T07:42:33;15.00;99.90
25923;DHT22;13725;51.170;4.442;2022-10-15T07:44:59;15.10;99.90
25923;DHT22;13725;51.170;4.442;2022-10-15T07:47:26;15.10;99.90
25923;DHT22;13725;51.170;4.442;2022-10-15T07:49:52;15.20;99.90
25923;DHT22;13725;51.170;4.442;2022-10-15T07:52:17;15.30;99.90
25923;DHT22;13725;51.170;4.442;2022-10-15T07:54:43;15.30;99.90
25923;DHT22;13725;51.170;4.442;2022-10-15T07:57:12;15.30;99.90
25923;DHT22;13725;51.170;4.442;2022-10-15T07:59:37;15.20;99.90
25923;DHT22;13725;51.170;4.442;2022-10-15T08:02:03;15.20;99.90
25923;DHT22;13725;51.170;4.442;2022-10-15T08:04:30;15.20;99.90
25923;DHT22;13725;51.170;4.442;2022-10-15T08:06:56;15.30;99.90
25923;DHT22;13725;51.170;4.442;2022-10-15T08:09:22;15.30;99.90
25923;DHT22;13725;51.170;4.442;2022-10-15T08:11:47;15.20;99.90
25923;DHT22;13725;51.170;4.442;2022-10-15T08:14:22;15.20;99.90
25923;DHT22;13725;51.170;4.442;2022-10-15T08:16:48;15.00;99.90
25923;DHT22;13725;51.170;4.442;2022-10-15T08:19:13;15.00;99.90
25923;DHT22;13725;51.170;4.442;2022-10-15T08:21:44;15.00;99.90
25923;DHT22;13725;51.170;4.442;2022-10-15T08:24:10;14.90;99.90
25923;DHT22;13725;51.170;4.442;2022-10-15T08:26:35;14.80;99.90
25923;DHT22;13725;51.170;4.442;2022-10-15T08:29:01;14.90;99.90
25923;DHT22;13725;51.170;4.442;2022-10-15T08:31:27;14.90;99.90
25923;DHT22;13725;51.170;4.442;2022-10-15T08:33:53;14.80;99.90
25923;DHT22;13725;51.170;4.442;2022-10-15T08:36:19;14.90;99.90
25923;DHT22;13725;51.170;4.442;2022-10-15T08:38:44;14.80;99.90
25923;DHT22;13725;51.170;4.442;2022-10-15T08:41:43;14.90;99.90
25923;DHT22;13725;51.170;4.442;2022-10-15T08:44:22;14.80;99.90
25923;DHT22;13725;51.170;4.442;2022-10-15T08:49:47;14.90;99.90
25923;DHT22;13725;51.170;4.442;2022-10-15T08:55:00;15.10;99.90
25923;DHT22;13725;51.170;4.442;2022-10-15T08:57:37;15.20;99.90
25923;DHT22;13725;51.170;4.442;2022-10-15T09:08:24;15.50;99.90
25923;DHT22;13725;51.170;4.442;2022-10-15T09:10:56;15.50;99.90
25923;DHT22;13725;51.170;4.442;2022-10-15T09:13:33;15.60;99.90
25923;DHT22;13725;51.170;4.442;2022-10-15T09:16:14;15.60;99.90
25923;DHT22;13725;51.170;4.442;2022-10-15T09:18:44;15.60;99.90
25923;DHT22;13725;51.170;4.442;2022-10-15T09:21:12;15.70;99.90
25923;DHT22;13725;51.170;4.442;2022-10-15T09:23:38;15.80;99.90
25923;DHT22;13725;51.170;4.442;2022-10-15T09:26:28;15.90;99.90
25923;DHT22;13725;51.170;4.442;2022-10-15T09:31:44;16.10;99.90
25923;DHT22;13725;51.170;4.442;2022-10-15T09:34:21;16.20;99.90
25923;DHT22;13725;51.170;4.442;2022-10-15T09:37:00;16.30;99.90
25923;DHT22;13725;51.170;4.442;2022-10-15T09:39:36;16.20;99.90
25923;DHT22;13725;51.170;4.442;2022-10-15T09:42:37;16.30;99.90
25923;DHT22;13725;51.170;4.442;2022-10-15T09:45:09;16.30;99.90
25923;DHT22;13725;51.170;4.442;2022-10-15T09:47:35;16.40;99.90
25923;DHT22;13725;51.170;4.442;2022-10-15T09:50:05;16.40;99.90
25923;DHT22;13725;51.170;4.442;2022-10-15T09:57:54;16.80;99.90
25923;DHT22;13725;51.170;4.442;2022-10-15T10:00:21;17.00;99.90
25923;DHT22;13725;51.170;4.442;2022-10-15T10:03:14;17.00;99.90
25923;DHT22;13725;51.170;4.442;2022-10-15T10:05:40;16.90;99.90
25923;DHT22;13725;51.170;4.442;2022-10-15T10:08:28;17.10;99.90
25923;DHT22;13725;51.170;4.442;2022-10-15T10:11:09;17.40;99.90
25923;DHT22;13725;51.170;4.442;2022-10-15T10:16:16;17.70;99.90
25923;DHT22;13725;51.170;4.442;2022-10-15T10:18:43;17.90;99.90
25923;DHT22;13725;51.170;4.442;2022-10-15T10:21:29;18.00;99.90
25923;DHT22;13725;51.170;4.442;2022-10-15T10:23:55;18.00;99.90
25923;DHT22;13725;51.170;4.442;2022-10-15T10:26:25;18.00;99.90
25923;DHT22;13725;51.170;4.442;2022-10-15T10:28:51;18.00;99.90
25923;DHT22;13725;51.170;4.442;2022-10-15T10:31:30;18.00;99.90
25923;DHT22;13725;51.170;4.442;2022-10-15T10:33:59;18.10;99.90
25923;DHT22;13725;51.170;4.442;2022-10-15T10:36:33;18.00;99.90
25923;DHT22;13725;51.170;4.442;2022-10-15T10:39:13;18.00;99.90
25923;DHT22;13725;51.170;4.442;2022-10-15T10:42:12;18.00;99.90
25923;DHT22;13725;51.170;4.442;2022-10-15T10:44:47;18.20;99.90
25923;DHT22;13725;51.170;4.442;2022-10-15T10:49:47;18.30;99.90
25923;DHT22;13725;51.170;4.442;2022-10-15T10:54:51;18.40;99.90
25923;DHT22;13725;51.170;4.442;2022-10-15T10:57:19;18.40;99.90
25923;DHT22;13725;51.170;4.442;2022-10-15T10:59:51;18.50;99.90
25923;DHT22;13725;51.170;4.442;2022-10-15T11:02:18;18.50;99.90
25923;DHT22;13725;51.170;4.442;2022-10-15T11:04:45;18.50;99.90
25923;DHT22;13725;51.170;4.442;2022-10-15T11:07:21;18.50;99.90
25923;DHT22;13725;51.170;4.442;2022-10-15T11:18:19;19.90;99.90
25923;DHT22;13725;51.170;4.442;2022-10-15T11:29:04;20.40;99.90
25923;DHT22;13725;51.170;4.442;2022-10-15T11:32:19;20.40;99.90
25923;DHT22;13725;51.170;4.442;2022-10-15T11:35:09;20.40;99.90
25923;DHT22;13725;51.170;4.442;2022-10-15T11:46:26;20.90;99.90
25923;DHT22;13725;51.170;4.442;2022-10-15T11:49:34;21.30;99.90
25923;DHT22;13725;51.170;4.442;2022-10-15T11:54:42;21.40;99.90
25923;DHT22;13725;51.170;4.442;2022-10-15T11:57:15;21.00;99.90
25923;DHT22;13725;51.170;4.442;2022-10-15T11:59:50;21.30;99.90
25923;DHT22;13725;51.170;4.442;2022-10-15T12:02:37;21.50;99.90
25923;DHT22;13725;51.170;4.442;2022-10-15T12:05:16;21.60;99.90
25923;DHT22;13725;51.170;4.442;2022-10-15T12:07:45;21.60;99.90
25923;DHT22;13725;51.170;4.442;2022-10-15T12:18:44;22.10;99.90
25923;DHT22;13725;51.170;4.442;2022-10-15T12:24:01;23.70;99.90
25923;DHT22;13725;51.170;4.442;2022-10-15T12:26:30;24.70;99.90
25923;DHT22;13725;51.170;4.442;2022-10-15T12:29:01;25.60;99.90
25923;DHT22;13725;51.170;4.442;2022-10-15T12:31:49;26.20;99.90
25923;DHT22;13725;51.170;4.442;2022-10-15T12:34:37;25.60;99.90
25923;DHT22;13725;51.170;4.442;2022-10-15T12:37:26;25.70;99.90
25923;DHT22;13725;51.170;4.442;2022-10-15T12:40:02;25.60;99.90
25923;DHT22;13725;51.170;4.442;2022-10-15T12:42:31;24.70;99.90
25923;DHT22;13725;51.170;4.442;2022-10-15T12:45:00;23.90;99.90
25923;DHT22;13725;51.170;4.442;2022-10-15T12:50:23;22.40;99.90
25923;DHT22;13725;51.170;4.442;2022-10-15T12:52:50;22.00;99.90
25923;DHT22;13725;51.170;4.442;2022-10-15T12:55:22;21.90;99.90
25923;DHT22;13725;51.170;4.442;2022-10-15T13:02:55;21.20;99.90
25923;DHT22;13725;51.170;4.442;2022-10-15T13:05:31;21.60;99.90
25923;DHT22;13725;51.170;4.442;2022-10-15T13:07:59;22.20;99.90
25923;DHT22;13725;51.170;4.442;2022-10-15T13:10:33;22.70;99.90
25923;DHT22;13725;51.170;4.442;2022-10-15T13:13:05;23.00;99.90
25923;DHT22;13725;51.170;4.442;2022-10-15T13:15:33;22.80;99.90
25923;DHT22;13725;51.170;4.442;2022-10-15T13:18:05;22.60;99.90
25923;DHT22;13725;51.170;4.442;2022-10-15T13:20:36;22.20;99.90
25923;DHT22;13725;51.170;4.442;2022-10-15T13:25:34;22.10;99.90
25923;DHT22;13725;51.170;4.442;2022-10-15T13:28:00;22.00;99.90
25923;DHT22;13725;51.170;4.442;2022-10-15T13:30:26;21.90;99.90
25923;DHT22;13725;51.170;4.442;2022-10-15T13:32:53;21.70;99.90
25923;DHT22;13725;51.170;4.442;2022-10-15T13:35:28;21.50;99.90
25923;DHT22;13725;51.170;4.442;2022-10-15T13:37:58;21.50;99.90
25923;DHT22;13725;51.170;4.442;2022-10-15T13:40:28;21.30;99.90
25923;DHT22;13725;51.170;4.442;2022-10-15T13:43:02;21.40;99.90
25923;DHT22;13725;51.170;4.442;2022-10-15T13:45:29;21.30;99.90
25923;DHT22;13725;51.170;4.442;2022-10-15T13:47:55;21.30;99.90
25923;DHT22;13725;51.170;4.442;2022-10-15T13:50:36;21.30;99.90
25923;DHT22;13725;51.170;4.442;2022-10-15T13:55:58;21.40;99.90
25923;DHT22;13725;51.170;4.442;2022-10-15T13:58:26;21.30;99.90
25923;DHT22;13725;51.170;4.442;2022-10-15T14:01:05;21.10;99.90
25923;DHT22;13725;51.170;4.442;2022-10-15T14:03:36;20.90;99.90
25923;DHT22;13725;51.170;4.442;2022-10-15T14:08:42;20.70;99.90
25923;DHT22;13725;51.170;4.442;2022-10-15T14:11:11;20.60;99.90
25923;DHT22;13725;51.170;4.442;2022-10-15T14:13:47;20.40;99.90
25923;DHT22;13725;51.170;4.442;2022-10-15T14:16:40;20.30;99.90
25923;DHT22;13725;51.170;4.442;2022-10-15T14:19:13;20.20;99.90
25923;DHT22;13725;51.170;4.442;2022-10-15T14:21:43;20.00;99.90
25923;DHT22;13725;51.170;4.442;2022-10-15T14:24:15;20.00;99.90
25923;DHT22;13725;51.170;4.442;2022-10-15T14:26:42;20.00;99.90
25923;DHT22;13725;51.170;4.442;2022-10-15T14:29:28;20.00;99.90
25923;DHT22;13725;51.170;4.442;2022-10-15T14:31:59;20.10;99.90
25923;DHT22;13725;51.170;4.442;2022-10-15T14:36:58;20.20;99.90
25923;DHT22;13725;51.170;4.442;2022-10-15T14:39:26;20.20;99.90
25923;DHT22;13725;51.170;4.442;2022-10-15T14:42:03;20.00;99.90
25923;DHT22;13725;51.170;4.442;2022-10-15T14:44:46;19.80;99.90
25923;DHT22;13725;51.170;4.442;2022-10-15T14:47:22;19.60;99.90
25923;DHT22;13725;51.170;4.442;2022-10-15T14:49:54;19.50;99.90
25923;DHT22;13725;51.170;4.442;2022-10-15T14:52:20;19.40;99.90
25923;DHT22;13725;51.170;4.442;2022-10-15T14:54:57;19.40;99.90
25923;DHT22;13725;51.170;4.442;2022-10-15T14:57:27;19.40;99.90
25923;DHT22;13725;51.170;4.442;2022-10-15T14:59:54;19.30;99.90
25923;DHT22;13725;51.170;4.442;2022-10-15T15:02:22;19.20;99.90
25923;DHT22;13725;51.170;4.442;2022-10-15T15:05:16;19.00;99.90
25923;DHT22;13725;51.170;4.442;2022-10-15T15:07:43;18.90;99.90
25923;DHT22;13725;51.170;4.442;2022-10-15T15:10:10;18.80;99.90
25923;DHT22;13725;51.170;4.442;2022-10-15T15:12:38;18.80;99.90
25923;DHT22;13725;51.170;4.442;2022-10-15T15:15:13;18.70;99.90
25923;DHT22;13725;51.170;4.442;2022-10-15T15:17:39;18.70;99.90
25923;DHT22;13725;51.170;4.442;2022-10-15T15:20:05;18.60;99.90
25923;DHT22;13725;51.170;4.442;2022-10-15T15:22:33;18.70;99.90
25923;DHT22;13725;51.170;4.442;2022-10-15T15:25:02;18.60;99.90
25923;DHT22;13725;51.170;4.442;2022-10-15T15:27:30;18.60;99.90
25923;DHT22;13725;51.170;4.442;2022-10-15T15:29:57;18.60;99.90
25923;DHT22;13725;51.170;4.442;2022-10-15T15:32:24;18.70;99.90
25923;DHT22;13725;51.170;4.442;2022-10-15T15:34:50;18.70;99.90
25923;DHT22;13725;51.170;4.442;2022-10-15T15:37:19;18.70;99.90
25923;DHT22;13725;51.170;4.442;2022-10-15T15:39:45;18.70;99.90
25923;DHT22;13725;51.170;4.442;2022-10-15T15:42:13;18.60;99.90
25923;DHT22;13725;51.170;4.442;2022-10-15T15:44:39;18.50;99.90
25923;DHT22;13725;51.170;4.442;2022-10-15T15:47:06;18.50;99.90
25923;DHT22;13725;51.170;4.442;2022-10-15T15:49:32;18.40;99.90
25923;DHT22;13725;51.170;4.442;2022-10-15T15:51:58;18.30;99.90
25923;DHT22;13725;51.170;4.442;2022-10-15T15:54:24;18.10;99.90
25923;DHT22;13725;51.170;4.442;2022-10-15T15:56:50;18.10;99.90
25923;DHT22;13725;51.170;4.442;2022-10-15T15:59:16;17.90;99.90
25923;DHT22;13725;51.170;4.442;2022-10-15T16:01:44;17.90;99.90
25923;DHT22;13725;51.170;4.442;2022-10-15T16:04:13;17.80;99.90
25923;DHT22;13725;51.170;4.442;2022-10-15T16:06:39;17.80;99.90
25923;DHT22;13725;51.170;4.442;2022-10-15T16:09:06;17.60;99.90
25923;DHT22;13725;51.170;4.442;2022-10-15T16:11:32;17.60;99.90
25923;DHT22;13725;51.170;4.442;2022-10-15T16:13:58;17.60;99.90
25923;DHT22;13725;51.170;4.442;2022-10-15T16:16:24;17.50;99.90
25923;DHT22;13725;51.170;4.442;2022-10-15T16:18:59;17.50;99.90
25923;DHT22;13725;51.170;4.442;2022-10-15T16:21:25;17.50;99.90
25923;DHT22;13725;51.170;4.442;2022-10-15T16:23:52;17.50;99.90
25923;DHT22;13725;51.170;4.442;2022-10-15T16:26:18;17.40;99.90
25923;DHT22;13725;51.170;4.442;2022-10-15T16:28:43;17.30;99.90
25923;DHT22;13725;51.170;4.442;2022-10-15T16:31:20;17.20;99.90
25923;DHT22;13725;51.170;4.442;2022-10-15T16:33:46;17.10;99.90
25923;DHT22;13725;51.170;4.442;2022-10-15T16:36:13;17.10;99.90
25923;DHT22;13725;51.170;4.442;2022-10-15T16:38:40;17.00;99.90
25923;DHT22;13725;51.170;4.442;2022-10-15T16:41:07;17.00;99.90
25923;DHT22;13725;51.170;4.442;2022-10-15T16:43:33;16.80;99.90
25923;DHT22;13725;51.170;4.442;2022-10-15T16:45:59;16.70;99.90
25923;DHT22;13725;51.170;4.442;2022-10-15T16:48:28;16.70;99.90
25923;DHT22;13725;51.170;4.442;2022-10-15T16:51:05;16.60;99.90
25923;DHT22;13725;51.170;4.442;2022-10-15T16:53:34;16.50;99.90
25923;DHT22;13725;51.170;4.442;2022-10-15T16:56:16;16.50;99.90
25923;DHT22;13725;51.170;4.442;2022-10-15T16:58:42;16.50;99.90
25923;DHT22;13725;51.170;4.442;2022-10-15T17:01:11;16.40;99.90
25923;DHT22;13725;51.170;4.442;2022-10-15T17:03:38;16.30;99.90
25923;DHT22;13725;51.170;4.442;2022-10-15T17:06:07;16.20;99.90
25923;DHT22;13725;51.170;4.442;2022-10-15T17:08:44;16.10;99.90
25923;DHT22;13725;51.170;4.442;2022-10-15T17:11:17;16.00;99.90
25923;DHT22;13725;51.170;4.442;2022-10-15T17:13:43;16.00;99.90
25923;DHT22;13725;51.170;4.442;2022-10-15T17:16:13;15.90;99.90
25923;DHT22;13725;51.170;4.442;2022-10-15T17:18:39;15.90;99.90
25923;DHT22;13725;51.170;4.442;2022-10-15T17:21:08;15.90;99.90
25923;DHT22;13725;51.170;4.442;2022-10-15T17:23:34;15.80;99.90
25923;DHT22;13725;51.170;4.442;2022-10-15T17:26:07;15.70;99.90
25923;DHT22;13725;51.170;4.442;2022-10-15T17:28:33;15.70;99.90
25923;DHT22;13725;51.170;4.442;2022-10-15T17:31:08;15.70;99.90
25923;DHT22;13725;51.170;4.442;2022-10-15T17:33:35;15.60;99.90
25923;DHT22;13725;51.170;4.442;2022-10-15T17:36:03;15.60;99.90
25923;DHT22;13725;51.170;4.442;2022-10-15T17:38:29;15.60;99.90
25923;DHT22;13725;51.170;4.442;2022-10-15T17:40:55;15.50;99.90